sensor_id;sensor_type;location;lat;lon;timestamp;temperature;humidity
64983;DHT22;69426;28.138;-15.436;2023-05-08T00:01:10;20.81;68.71
64983;DHT22;69426;28.138;-15.436;2023-05-08T00:03:36;20.84;68.20
64983;DHT22;69426;28.138;-15.436;2023-05-08T00:06:05;20.78;67.02
64983;DHT22;69426;28.138;-15.436;2023-05-08T00:08:31;20.82;66.58
64983;DHT22;69426;28.138;-15.436;2023-05-08T00:10:57;20.84;66.50
64983;DHT22;69426;28.138;-15.436;2023-05-08T00:13:23;20.89;67.14
64983;DHT22;69426;28.138;-15.436;2023-05-08T00:15:49;20.92;67.68
64983;DHT22;69426;28.138;-15.436;2023-05-08T00:18:15;20.87;67.35
64983;DHT22;69426;28.138;-15.436;2023-05-08T00:20:41;20.89;67.76
64983;DHT22;69426;28.138;-15.436;2023-05-08T00:23:07;20.87;66.96
64983;DHT22;69426;28.138;-15.436;2023-05-08T00:25:33;20.95;68.14
64983;DHT22;69426;28.138;-15.436;2023-05-08T00:27:59;20.89;69.51
64983;DHT22;69426;28.138;-15.436;2023-05-08T00:30:25;20.84;67.40
64983;DHT22;69426;28.138;-15.436;2023-05-08T00:32:51;20.87;68.74
64983;DHT22;69426;28.138;-15.436;2023-05-08T00:35:17;20.89;69.23
64983;DHT22;69426;28.138;-15.436;2023-05-08T00:37:43;20.84;68.89
64983;DHT22;69426;28.138;-15.436;2023-05-08T00:40:09;20.79;67.98
64983;DHT22;69426;28.138;-15.436;2023-05-08T00:42:36;20.89;68.98
64983;DHT22;69426;28.138;-15.436;2023-05-08T00:45:02;20.96;70.03
64983;DHT22;69426;28.138;-15.436;2023-05-08T00:47:29;20.87;69.78
64983;DHT22;69426;28.138;-15.436;2023-05-08T00:49:59;20.89;70.50
64983;DHT22;69426;28.138;-15.436;2023-05-08T00:52:27;20.89;71.28
64983;DHT22;69426;28.138;-15.436;2023-05-08T00:54:54;20.84;70.87
64983;DHT22;69426;28.138;-15.436;2023-05-08T00:57:21;20.75;69.53
64983;DHT22;69426;28.138;-15.436;2023-05-08T00:59:48;20.74;68.38
64983;DHT22;69426;28.138;-15.436;2023-05-08T01:02:15;20.74;67.48
64983;DHT22;69426;28.138;-15.436;2023-05-08T01:04:41;20.79;67.58
64983;DHT22;69426;28.138;-15.436;2023-05-08T01:07:10;20.74;67.59
64983;DHT22;69426;28.138;-15.436;2023-05-08T01:09:36;20.72;68.12
64983;DHT22;69426;28.138;-15.436;2023-05-08T01:14:59;20.71;69.08
64983;DHT22;69426;28.138;-15.436;2023-05-08T01:25:58;20.79;68.73
64983;DHT22;69426;28.138;-15.436;2023-05-08T01:34:30;20.85;68.33
64983;DHT22;69426;28.138;-15.436;2023-05-08T01:37:10;20.87;68.82
64983;DHT22;69426;28.138;-15.436;2023-05-08T01:40:06;20.78;68.67
64983;DHT22;69426;28.138;-15.436;2023-05-08T01:45:49;20.78;64.96
64983;DHT22;69426;28.138;-15.436;2023-05-08T01:48:23;20.84;65.33
64983;DHT22;69426;28.138;-15.436;2023-05-08T01:50:59;20.79;65.43
64983;DHT22;69426;28.138;-15.436;2023-05-08T01:53:35;20.74;65.36
64983;DHT22;69426;28.138;-15.436;2023-05-08T01:56:07;20.71;65.55
64983;DHT22;69426;28.138;-15.436;2023-05-08T01:58:35;20.75;64.79
64983;DHT22;69426;28.138;-15.436;2023-05-08T02:01:02;20.78;64.74
64983;DHT22;69426;28.138;-15.436;2023-05-08T02:03:30;20.85;66.30
64983;DHT22;69426;28.138;-15.436;2023-05-08T02:05:58;20.92;67.68
64983;DHT22;69426;28.138;-15.436;2023-05-08T02:08:25;20.84;68.49
64983;DHT22;69426;28.138;-15.436;2023-05-08T02:10:52;20.78;67.82
64983;DHT22;69426;28.138;-15.436;2023-05-08T02:13:20;20.75;67.21
64983;DHT22;69426;28.138;-15.436;2023-05-08T02:15:51;20.77;66.98
64983;DHT22;69426;28.138;-15.436;2023-05-08T02:18:19;20.74;66.94
64983;DHT22;69426;28.138;-15.436;2023-05-08T02:20:48;20.75;66.09
64983;DHT22;69426;28.138;-15.436;2023-05-08T02:23:17;20.78;67.05
64983;DHT22;69426;28.138;-15.436;2023-05-08T02:25:45;20.79;68.01
64983;DHT22;69426;28.138;-15.436;2023-05-08T02:28:11;20.77;67.33
64983;DHT22;69426;28.138;-15.436;2023-05-08T02:30:39;20.81;67.05
64983;DHT22;69426;28.138;-15.436;2023-05-08T02:33:06;20.81;66.53
64983;DHT22;69426;28.138;-15.436;2023-05-08T02:35:33;20.85;66.10
64983;DHT22;69426;28.138;-15.436;2023-05-08T02:38:01;20.82;66.46
64983;DHT22;69426;28.138;-15.436;2023-05-08T02:40:28;20.81;66.23
64983;DHT22;69426;28.138;-15.436;2023-05-08T02:42:54;20.85;65.55
64983;DHT22;69426;28.138;-15.436;2023-05-08T02:45:22;20.87;66.05
64983;DHT22;69426;28.138;-15.436;2023-05-08T02:50:22;20.77;66.68
64983;DHT22;69426;28.138;-15.436;2023-05-08T02:52:55;20.82;66.56
64983;DHT22;69426;28.138;-15.436;2023-05-08T03:00:55;20.78;64.82
64983;DHT22;69426;28.138;-15.436;2023-05-08T03:03:31;20.81;64.64
64983;DHT22;69426;28.138;-15.436;2023-05-08T03:05:59;20.82;63.92
64983;DHT22;69426;28.138;-15.436;2023-05-08T03:08:31;20.84;64.01
64983;DHT22;69426;28.138;-15.436;2023-05-08T03:11:01;20.85;65.96
64983;DHT22;69426;28.138;-15.436;2023-05-08T03:13:31;20.82;67.18
64983;DHT22;69426;28.138;-15.436;2023-05-08T03:16:02;20.81;67.29
64983;DHT22;69426;28.138;-15.436;2023-05-08T03:18:35;20.79;68.24
64983;DHT22;69426;28.138;-15.436;2023-05-08T03:21:04;20.75;69.30
64983;DHT22;69426;28.138;-15.436;2023-05-08T03:23:32;20.74;70.17
64983;DHT22;69426;28.138;-15.436;2023-05-08T03:26:00;20.75;70.68
64983;DHT22;69426;28.138;-15.436;2023-05-08T03:28:26;20.85;71.04
64983;DHT22;69426;28.138;-15.436;2023-05-08T03:30:54;20.71;69.25
64983;DHT22;69426;28.138;-15.436;2023-05-08T03:33:22;20.68;67.54
64983;DHT22;69426;28.138;-15.436;2023-05-08T03:35:49;20.77;66.93
64983;DHT22;69426;28.138;-15.436;2023-05-08T03:38:15;20.75;66.21
64983;DHT22;69426;28.138;-15.436;2023-05-08T03:40:41;20.75;64.64
64983;DHT22;69426;28.138;-15.436;2023-05-08T03:43:08;20.75;63.48
64983;DHT22;69426;28.138;-15.436;2023-05-08T03:45:36;20.77;63.54
64983;DHT22;69426;28.138;-15.436;2023-05-08T03:48:03;20.71;63.14
64983;DHT22;69426;28.138;-15.436;2023-05-08T03:50:30;20.75;63.45
64983;DHT22;69426;28.138;-15.436;2023-05-08T03:52:57;20.78;64.32
64983;DHT22;69426;28.138;-15.436;2023-05-08T03:55:23;20.85;66.83
64983;DHT22;69426;28.138;-15.436;2023-05-08T03:58:27;20.77;67.43
64983;DHT22;69426;28.138;-15.436;2023-05-08T04:01:07;20.75;66.40
64983;DHT22;69426;28.138;-15.436;2023-05-08T04:07:02;20.81;67.44
64983;DHT22;69426;28.138;-15.436;2023-05-08T04:09:36;20.65;65.16
64983;DHT22;69426;28.138;-15.436;2023-05-08T04:12:19;20.68;63.06
64983;DHT22;69426;28.138;-15.436;2023-05-08T04:15:02;20.81;62.89
64983;DHT22;69426;28.138;-15.436;2023-05-08T04:17:38;20.77;63.14
64983;DHT22;69426;28.138;-15.436;2023-05-08T04:20:06;20.77;63.33
64983;DHT22;69426;28.138;-15.436;2023-05-08T04:22:34;20.67;65.33
64983;DHT22;69426;28.138;-15.436;2023-05-08T04:25:05;20.63;66.44
64983;DHT22;69426;28.138;-15.436;2023-05-08T04:27:32;20.63;66.91
64983;DHT22;69426;28.138;-15.436;2023-05-08T04:29:58;20.71;68.98
64983;DHT22;69426;28.138;-15.436;2023-05-08T04:32:25;20.69;70.43
64983;DHT22;69426;28.138;-15.436;2023-05-08T04:34:52;20.60;69.50
64983;DHT22;69426;28.138;-15.436;2023-05-08T04:37:27;20.61;68.64
64983;DHT22;69426;28.138;-15.436;2023-05-08T04:39:53;20.64;68.15
64983;DHT22;69426;28.138;-15.436;2023-05-08T04:42:19;20.65;68.11
64983;DHT22;69426;28.138;-15.436;2023-05-08T04:44:45;20.65;67.50
64983;DHT22;69426;28.138;-15.436;2023-05-08T04:47:12;20.63;67.41
64983;DHT22;69426;28.138;-15.436;2023-05-08T04:49:38;20.65;67.34
64983;DHT22;69426;28.138;-15.436;2023-05-08T04:52:04;20.67;68.11
64983;DHT22;69426;28.138;-15.436;2023-05-08T04:54:31;20.63;67.18
64983;DHT22;69426;28.138;-15.436;2023-05-08T04:56:57;20.67;66.74
64983;DHT22;69426;28.138;-15.436;2023-05-08T04:59:22;20.71;68.25
64983;DHT22;69426;28.138;-15.436;2023-05-08T05:01:49;20.69;64.50
64983;DHT22;69426;28.138;-15.436;2023-05-08T05:04:15;20.74;63.93
64983;DHT22;69426;28.138;-15.436;2023-05-08T05:06:41;20.74;64.63
64983;DHT22;69426;28.138;-15.436;2023-05-08T05:09:07;20.74;65.55
64983;DHT22;69426;28.138;-15.436;2023-05-08T05:11:33;20.65;66.24
64983;DHT22;69426;28.138;-15.436;2023-05-08T05:13:59;20.71;66.54
64983;DHT22;69426;28.138;-15.436;2023-05-08T05:16:25;20.68;65.38
64983;DHT22;69426;28.138;-15.436;2023-05-08T05:18:52;20.67;66.50
64983;DHT22;69426;28.138;-15.436;2023-05-08T05:21:18;20.58;67.21
64983;DHT22;69426;28.138;-15.436;2023-05-08T05:23:44;20.64;67.37
64983;DHT22;69426;28.138;-15.436;2023-05-08T05:26:10;20.64;65.99
64983;DHT22;69426;28.138;-15.436;2023-05-08T05:28:35;20.60;63.90
64983;DHT22;69426;28.138;-15.436;2023-05-08T05:31:01;20.61;62.38
64983;DHT22;69426;28.138;-15.436;2023-05-08T05:33:27;20.65;62.07
64983;DHT22;69426;28.138;-15.436;2023-05-08T05:35:53;20.63;62.41
64983;DHT22;69426;28.138;-15.436;2023-05-08T05:38:18;20.64;64.04
64983;DHT22;69426;28.138;-15.436;2023-05-08T05:40:44;20.64;66.84
64983;DHT22;69426;28.138;-15.436;2023-05-08T05:43:10;20.61;66.77
64983;DHT22;69426;28.138;-15.436;2023-05-08T05:45:36;20.63;63.78
64983;DHT22;69426;28.138;-15.436;2023-05-08T05:48:01;20.67;64.52
64983;DHT22;69426;28.138;-15.436;2023-05-08T05:50:27;20.63;64.22
64983;DHT22;69426;28.138;-15.436;2023-05-08T05:52:56;20.61;64.20
64983;DHT22;69426;28.138;-15.436;2023-05-08T05:55:22;20.69;64.47
64983;DHT22;69426;28.138;-15.436;2023-05-08T05:57:48;20.68;65.06
64983;DHT22;69426;28.138;-15.436;2023-05-08T06:00:14;20.71;65.62
64983;DHT22;69426;28.138;-15.436;2023-05-08T06:02:41;20.65;66.19
64983;DHT22;69426;28.138;-15.436;2023-05-08T06:05:08;20.67;66.20
64983;DHT22;69426;28.138;-15.436;2023-05-08T06:07:34;20.67;66.08
64983;DHT22;69426;28.138;-15.436;2023-05-08T06:10:00;20.71;66.18
64983;DHT22;69426;28.138;-15.436;2023-05-08T06:12:26;20.65;67.44
64983;DHT22;69426;28.138;-15.436;2023-05-08T06:14:53;20.65;67.73
64983;DHT22;69426;28.138;-15.436;2023-05-08T06:17:19;20.67;68.29
64983;DHT22;69426;28.138;-15.436;2023-05-08T06:19:45;20.63;69.11
64983;DHT22;69426;28.138;-15.436;2023-05-08T06:22:19;20.67;69.88
64983;DHT22;69426;28.138;-15.436;2023-05-08T06:24:48;20.64;70.22
64983;DHT22;69426;28.138;-15.436;2023-05-08T06:27:13;20.63;70.09
64983;DHT22;69426;28.138;-15.436;2023-05-08T06:29:39;20.74;70.27
64983;DHT22;69426;28.138;-15.436;2023-05-08T06:32:05;20.61;69.89
64983;DHT22;69426;28.138;-15.436;2023-05-08T06:34:31;20.54;69.86
64983;DHT22;69426;28.138;-15.436;2023-05-08T06:36:57;20.54;68.80
64983;DHT22;69426;28.138;-15.436;2023-05-08T06:39:22;20.50;66.85
64983;DHT22;69426;28.138;-15.436;2023-05-08T06:41:48;20.60;65.64
64983;DHT22;69426;28.138;-15.436;2023-05-08T06:44:14;20.60;64.57
64983;DHT22;69426;28.138;-15.436;2023-05-08T06:46:40;20.65;63.47
64983;DHT22;69426;28.138;-15.436;2023-05-08T06:49:06;20.65;63.05
64983;DHT22;69426;28.138;-15.436;2023-05-08T06:51:32;20.63;63.08
64983;DHT22;69426;28.138;-15.436;2023-05-08T06:54:00;20.60;63.00
64983;DHT22;69426;28.138;-15.436;2023-05-08T06:56:26;20.65;63.10
64983;DHT22;69426;28.138;-15.436;2023-05-08T06:58:51;20.65;64.71
64983;DHT22;69426;28.138;-15.436;2023-05-08T07:01:17;20.69;64.93
64983;DHT22;69426;28.138;-15.436;2023-05-08T07:03:43;20.71;64.75
64983;DHT22;69426;28.138;-15.436;2023-05-08T07:06:09;20.65;63.88
64983;DHT22;69426;28.138;-15.436;2023-05-08T07:08:35;20.71;63.23
64983;DHT22;69426;28.138;-15.436;2023-05-08T07:11:01;20.81;63.21
64983;DHT22;69426;28.138;-15.436;2023-05-08T07:13:27;20.74;63.56
64983;DHT22;69426;28.138;-15.436;2023-05-08T07:15:53;20.82;64.26
64983;DHT22;69426;28.138;-15.436;2023-05-08T07:18:19;20.87;64.54
64983;DHT22;69426;28.138;-15.436;2023-05-08T07:20:45;20.82;65.66
64983;DHT22;69426;28.138;-15.436;2023-05-08T07:23:11;20.82;65.93
64983;DHT22;69426;28.138;-15.436;2023-05-08T07:25:37;20.81;65.41
64983;DHT22;69426;28.138;-15.436;2023-05-08T07:28:02;20.84;64.55
64983;DHT22;69426;28.138;-15.436;2023-05-08T07:30:29;20.85;64.41
64983;DHT22;69426;28.138;-15.436;2023-05-08T07:32:54;20.85;63.94
64983;DHT22;69426;28.138;-15.436;2023-05-08T07:35:20;20.89;63.54
64983;DHT22;69426;28.138;-15.436;2023-05-08T07:37:46;20.87;63.60
64983;DHT22;69426;28.138;-15.436;2023-05-08T07:40:12;20.94;63.27
64983;DHT22;69426;28.138;-15.436;2023-05-08T07:42:42;21.03;63.51
64983;DHT22;69426;28.138;-15.436;2023-05-08T07:45:08;21.06;64.74
64983;DHT22;69426;28.138;-15.436;2023-05-08T07:47:34;21.03;65.87
64983;DHT22;69426;28.138;-15.436;2023-05-08T07:50:00;21.06;65.64
64983;DHT22;69426;28.138;-15.436;2023-05-08T07:52:26;20.96;65.82
64983;DHT22;69426;28.138;-15.436;2023-05-08T07:54:52;21.00;65.94
64983;DHT22;69426;28.138;-15.436;2023-05-08T07:57:17;21.03;65.98
64983;DHT22;69426;28.138;-15.436;2023-05-08T07:59:43;21.00;66.06
64983;DHT22;69426;28.138;-15.436;2023-05-08T08:02:09;20.91;66.88
64983;DHT22;69426;28.138;-15.436;2023-05-08T08:04:34;20.89;66.35
64983;DHT22;69426;28.138;-15.436;2023-05-08T08:07:00;20.92;65.62
64983;DHT22;69426;28.138;-15.436;2023-05-08T08:09:26;20.95;64.85
64983;DHT22;69426;28.138;-15.436;2023-05-08T08:11:52;20.96;62.87
64983;DHT22;69426;28.138;-15.436;2023-05-08T08:14:17;21.15;61.90
64983;DHT22;69426;28.138;-15.436;2023-05-08T08:16:43;21.23;60.59
64983;DHT22;69426;28.138;-15.436;2023-05-08T08:19:09;21.26;61.07
64983;DHT22;69426;28.138;-15.436;2023-05-08T08:21:35;21.08;60.62
64983;DHT22;69426;28.138;-15.436;2023-05-08T08:24:01;21.19;61.84
64983;DHT22;69426;28.138;-15.436;2023-05-08T08:26:27;21.10;63.24
64983;DHT22;69426;28.138;-15.436;2023-05-08T08:28:52;21.29;63.64
64983;DHT22;69426;28.138;-15.436;2023-05-08T08:31:18;21.25;63.20
64983;DHT22;69426;28.138;-15.436;2023-05-08T08:33:45;21.27;63.57
64983;DHT22;69426;28.138;-15.436;2023-05-08T08:36:14;21.16;65.32
64983;DHT22;69426;28.138;-15.436;2023-05-08T08:38:40;20.96;67.37
64983;DHT22;69426;28.138;-15.436;2023-05-08T08:41:07;21.06;67.61
64983;DHT22;69426;28.138;-15.436;2023-05-08T08:43:33;21.09;67.20
64983;DHT22;69426;28.138;-15.436;2023-05-08T08:46:02;21.39;67.44
64983;DHT22;69426;28.138;-15.436;2023-05-08T08:48:36;21.29;67.36
64983;DHT22;69426;28.138;-15.436;2023-05-08T08:51:05;21.39;63.95
64983;DHT22;69426;28.138;-15.436;2023-05-08T08:53:41;21.43;62.52
64983;DHT22;69426;28.138;-15.436;2023-05-08T08:56:08;21.46;62.99
64983;DHT22;69426;28.138;-15.436;2023-05-08T08:58:47;21.40;64.91
64983;DHT22;69426;28.138;-15.436;2023-05-08T09:01:17;21.33;65.03
64983;DHT22;69426;28.138;-15.436;2023-05-08T09:03:43;21.37;65.31
64983;DHT22;69426;28.138;-15.436;2023-05-08T09:06:10;21.23;64.78
64983;DHT22;69426;28.138;-15.436;2023-05-08T09:08:37;21.29;63.76
64983;DHT22;69426;28.138;-15.436;2023-05-08T09:11:03;21.60;63.49
64983;DHT22;69426;28.138;-15.436;2023-05-08T09:13:29;21.47;61.84
64983;DHT22;69426;28.138;-15.436;2023-05-08T09:15:57;21.51;60.42
64983;DHT22;69426;28.138;-15.436;2023-05-08T09:18:23;21.70;60.87
64983;DHT22;69426;28.138;-15.436;2023-05-08T09:20:49;21.73;61.66
64983;DHT22;69426;28.138;-15.436;2023-05-08T09:23:16;21.61;62.07
64983;DHT22;69426;28.138;-15.436;2023-05-08T09:25:43;21.78;61.78
64983;DHT22;69426;28.138;-15.436;2023-05-08T09:28:16;21.75;61.47
64983;DHT22;69426;28.138;-15.436;2023-05-08T09:30:58;21.71;61.07
64983;DHT22;69426;28.138;-15.436;2023-05-08T09:33:27;21.75;61.37
64983;DHT22;69426;28.138;-15.436;2023-05-08T09:35:54;21.78;61.10
64983;DHT22;69426;28.138;-15.436;2023-05-08T09:38:39;22.11;60.47
64983;DHT22;69426;28.138;-15.436;2023-05-08T09:41:14;22.21;60.08
64983;DHT22;69426;28.138;-15.436;2023-05-08T09:43:41;21.97;60.39
64983;DHT22;69426;28.138;-15.436;2023-05-08T09:46:20;21.84;61.19
64983;DHT22;69426;28.138;-15.436;2023-05-08T09:48:53;21.88;62.16
64983;DHT22;69426;28.138;-15.436;2023-05-08T09:51:19;21.87;62.68
64983;DHT22;69426;28.138;-15.436;2023-05-08T09:53:45;21.91;63.24
64983;DHT22;69426;28.138;-15.436;2023-05-08T09:56:11;21.88;64.04
64983;DHT22;69426;28.138;-15.436;2023-05-08T10:01:04;21.73;64.78
64983;DHT22;69426;28.138;-15.436;2023-05-08T10:03:49;21.80;63.66
64983;DHT22;69426;28.138;-15.436;2023-05-08T10:06:15;21.95;62.07
64983;DHT22;69426;28.138;-15.436;2023-05-08T10:08:40;21.85;61.34
64983;DHT22;69426;28.138;-15.436;2023-05-08T10:11:17;22.14;61.51
64983;DHT22;69426;28.138;-15.436;2023-05-08T10:13:44;21.90;61.94
64983;DHT22;69426;28.138;-15.436;2023-05-08T10:16:17;21.87;61.70
64983;DHT22;69426;28.138;-15.436;2023-05-08T10:18:47;22.00;61.52
64983;DHT22;69426;28.138;-15.436;2023-05-08T10:21:14;21.81;63.45
64983;DHT22;69426;28.138;-15.436;2023-05-08T10:23:43;22.11;63.11
64983;DHT22;69426;28.138;-15.436;2023-05-08T10:26:21;22.15;63.03
64983;DHT22;69426;28.138;-15.436;2023-05-08T10:28:54;22.21;62.76
64983;DHT22;69426;28.138;-15.436;2023-05-08T10:31:33;22.14;62.33
64983;DHT22;69426;28.138;-15.436;2023-05-08T10:34:00;22.31;62.47
64983;DHT22;69426;28.138;-15.436;2023-05-08T10:36:27;22.22;63.03
64983;DHT22;69426;28.138;-15.436;2023-05-08T10:38:53;22.43;61.30
64983;DHT22;69426;28.138;-15.436;2023-05-08T10:41:21;22.11;61.70
64983;DHT22;69426;28.138;-15.436;2023-05-08T10:43:48;22.46;60.86
64983;DHT22;69426;28.138;-15.436;2023-05-08T10:54:12;22.04;63.42
64983;DHT22;69426;28.138;-15.436;2023-05-08T10:56:39;22.12;63.49
64983;DHT22;69426;28.138;-15.436;2023-05-08T10:59:04;21.91;63.91
64983;DHT22;69426;28.138;-15.436;2023-05-08T11:01:30;22.33;64.39
64983;DHT22;69426;28.138;-15.436;2023-05-08T11:03:56;22.56;62.57
64983;DHT22;69426;28.138;-15.436;2023-05-08T11:06:47;22.74;60.81
64983;DHT22;69426;28.138;-15.436;2023-05-08T11:09:21;22.91;61.74
64983;DHT22;69426;28.138;-15.436;2023-05-08T11:12:25;22.42;63.11
64983;DHT22;69426;28.138;-15.436;2023-05-08T11:15:05;22.42;62.08
64983;DHT22;69426;28.138;-15.436;2023-05-08T11:17:32;22.64;61.65
64983;DHT22;69426;28.138;-15.436;2023-05-08T11:20:00;22.55;62.63
64983;DHT22;69426;28.138;-15.436;2023-05-08T11:22:33;22.55;63.88
64983;DHT22;69426;28.138;-15.436;2023-05-08T11:25:08;22.48;64.12
64983;DHT22;69426;28.138;-15.436;2023-05-08T11:27:36;22.46;65.27
64983;DHT22;69426;28.138;-15.436;2023-05-08T11:39:04;22.29;67.43
64983;DHT22;69426;28.138;-15.436;2023-05-08T11:46:41;22.22;65.42
64983;DHT22;69426;28.138;-15.436;2023-05-08T11:49:11;22.25;64.14
64983;DHT22;69426;28.138;-15.436;2023-05-08T11:51:39;22.15;65.20
64983;DHT22;69426;28.138;-15.436;2023-05-08T11:54:11;22.26;65.55
64983;DHT22;69426;28.138;-15.436;2023-05-08T11:56:37;22.19;66.12
64983;DHT22;69426;28.138;-15.436;2023-05-08T11:59:04;22.42;63.96
64983;DHT22;69426;28.138;-15.436;2023-05-08T12:01:31;22.28;63.99
64983;DHT22;69426;28.138;-15.436;2023-05-08T12:04:05;22.19;63.98
64983;DHT22;69426;28.138;-15.436;2023-05-08T12:06:32;22.11;64.57
64983;DHT22;69426;28.138;-15.436;2023-05-08T12:08:59;22.12;65.23
64983;DHT22;69426;28.138;-15.436;2023-05-08T12:11:25;22.04;65.25
64983;DHT22;69426;28.138;-15.436;2023-05-08T12:13:52;22.33;64.53
64983;DHT22;69426;28.138;-15.436;2023-05-08T12:16:18;21.98;68.15
64983;DHT22;69426;28.138;-15.436;2023-05-08T12:18:48;22.09;67.63
64983;DHT22;69426;28.138;-15.436;2023-05-08T12:21:14;22.01;67.41
64983;DHT22;69426;28.138;-15.436;2023-05-08T12:23:40;21.84;67.47
64983;DHT22;69426;28.138;-15.436;2023-05-08T12:26:07;22.23;68.17
64983;DHT22;69426;28.138;-15.436;2023-05-08T12:28:33;21.91;67.77
64983;DHT22;69426;28.138;-15.436;2023-05-08T12:30:59;21.93;66.54
64983;DHT22;69426;28.138;-15.436;2023-05-08T12:33:25;21.74;66.76
64983;DHT22;69426;28.138;-15.436;2023-05-08T12:35:54;22.09;67.67
64983;DHT22;69426;28.138;-15.436;2023-05-08T12:38:25;21.91;65.50
64983;DHT22;69426;28.138;-15.436;2023-05-08T12:40:51;22.12;66.89
64983;DHT22;69426;28.138;-15.436;2023-05-08T12:43:22;22.43;65.30
64983;DHT22;69426;28.138;-15.436;2023-05-08T12:45:55;22.06;67.15
64983;DHT22;69426;28.138;-15.436;2023-05-08T12:48:20;21.87;67.97
64983;DHT22;69426;28.138;-15.436;2023-05-08T12:50:46;21.90;70.18
64983;DHT22;69426;28.138;-15.436;2023-05-08T12:53:17;21.77;67.85
64983;DHT22;69426;28.138;-15.436;2023-05-08T12:55:54;21.81;66.94
64983;DHT22;69426;28.138;-15.436;2023-05-08T12:58:24;21.87;67.78
64983;DHT22;69426;28.138;-15.436;2023-05-08T13:00:51;21.91;67.97
64983;DHT22;69426;28.138;-15.436;2023-05-08T13:03:26;21.94;67.61
64983;DHT22;69426;28.138;-15.436;2023-05-08T13:05:53;21.98;68.87
64983;DHT22;69426;28.138;-15.436;2023-05-08T13:08:19;22.02;68.05
64983;DHT22;69426;28.138;-15.436;2023-05-08T13:13:12;22.19;68.09
64983;DHT22;69426;28.138;-15.436;2023-05-08T13:15:38;21.88;68.31
64983;DHT22;69426;28.138;-15.436;2023-05-08T13:18:04;21.97;68.48
64983;DHT22;69426;28.138;-15.436;2023-05-08T13:20:34;21.91;68.28
64983;DHT22;69426;28.138;-15.436;2023-05-08T13:23:00;21.85;67.36
64983;DHT22;69426;28.138;-15.436;2023-05-08T13:25:26;22.11;66.99
64983;DHT22;69426;28.138;-15.436;2023-05-08T13:27:52;22.26;68.47
64983;DHT22;69426;28.138;-15.436;2023-05-08T13:30:18;21.73;70.10
64983;DHT22;69426;28.138;-15.436;2023-05-08T13:32:45;21.67;69.67
64983;DHT22;69426;28.138;-15.436;2023-05-08T13:35:10;21.61;70.89
64983;DHT22;69426;28.138;-15.436;2023-05-08T13:37:36;21.60;68.25
64983;DHT22;69426;28.138;-15.436;2023-05-08T13:40:02;21.74;69.63
64983;DHT22;69426;28.138;-15.436;2023-05-08T13:42:28;22.12;70.36
64983;DHT22;69426;28.138;-15.436;2023-05-08T13:44:54;21.87;69.32
64983;DHT22;69426;28.138;-15.436;2023-05-08T13:47:20;22.01;68.88
64983;DHT22;69426;28.138;-15.436;2023-05-08T13:49:45;21.91;69.27
64983;DHT22;69426;28.138;-15.436;2023-05-08T13:52:12;21.87;68.92
64983;DHT22;69426;28.138;-15.436;2023-05-08T13:54:37;22.06;68.34
64983;DHT22;69426;28.138;-15.436;2023-05-08T13:57:03;21.98;68.61
64983;DHT22;69426;28.138;-15.436;2023-05-08T13:59:29;22.15;68.36
64983;DHT22;69426;28.138;-15.436;2023-05-08T14:01:55;22.16;68.84
64983;DHT22;69426;28.138;-15.436;2023-05-08T14:04:21;22.15;68.58
64983;DHT22;69426;28.138;-15.436;2023-05-08T14:06:48;22.42;68.95
64983;DHT22;69426;28.138;-15.436;2023-05-08T14:09:14;22.66;66.06
64983;DHT22;69426;28.138;-15.436;2023-05-08T14:11:39;22.45;68.18
64983;DHT22;69426;28.138;-15.436;2023-05-08T14:14:07;22.60;67.33
64983;DHT22;69426;28.138;-15.436;2023-05-08T14:16:32;22.59;66.23
64983;DHT22;69426;28.138;-15.436;2023-05-08T14:18:58;22.38;67.53
64983;DHT22;69426;28.138;-15.436;2023-05-08T14:21:24;22.60;67.79
64983;DHT22;69426;28.138;-15.436;2023-05-08T14:23:50;22.62;66.09
64983;DHT22;69426;28.138;-15.436;2023-05-08T14:26:16;22.70;67.26
64983;DHT22;69426;28.138;-15.436;2023-05-08T14:28:41;22.63;67.26
64983;DHT22;69426;28.138;-15.436;2023-05-08T14:31:07;22.81;67.90
64983;DHT22;69426;28.138;-15.436;2023-05-08T14:33:33;22.96;68.84
64983;DHT22;69426;28.138;-15.436;2023-05-08T14:35:59;22.57;69.27
64983;DHT22;69426;28.138;-15.436;2023-05-08T14:38:24;22.46;68.95
64983;DHT22;69426;28.138;-15.436;2023-05-08T14:40:50;22.83;67.43
64983;DHT22;69426;28.138;-15.436;2023-05-08T14:43:16;22.70;66.80
64983;DHT22;69426;28.138;-15.436;2023-05-08T14:45:42;22.86;65.32
64983;DHT22;69426;28.138;-15.436;2023-05-08T14:48:08;22.87;66.57
64983;DHT22;69426;28.138;-15.436;2023-05-08T14:50:33;22.76;66.86
64983;DHT22;69426;28.138;-15.436;2023-05-08T14:52:59;22.93;67.25
64983;DHT22;69426;28.138;-15.436;2023-05-08T14:55:25;22.86;66.29
64983;DHT22;69426;28.138;-15.436;2023-05-08T14:57:51;23.41;66.66
64983;DHT22;69426;28.138;-15.436;2023-05-08T15:00:17;23.07;67.32
64983;DHT22;69426;28.138;-15.436;2023-05-08T15:02:43;22.14;71.11
64983;DHT22;69426;28.138;-15.436;2023-05-08T15:05:09;22.22;69.05
64983;DHT22;69426;28.138;-15.436;2023-05-08T15:07:35;22.11;70.16
64983;DHT22;69426;28.138;-15.436;2023-05-08T15:10:02;22.25;68.50
64983;DHT22;69426;28.138;-15.436;2023-05-08T15:12:28;22.48;69.33
64983;DHT22;69426;28.138;-15.436;2023-05-08T15:14:54;22.48;68.63
64983;DHT22;69426;28.138;-15.436;2023-05-08T15:17:20;22.09;69.50
64983;DHT22;69426;28.138;-15.436;2023-05-08T15:19:45;22.09;70.61
64983;DHT22;69426;28.138;-15.436;2023-05-08T15:22:12;22.02;71.13
64983;DHT22;69426;28.138;-15.436;2023-05-08T15:24:37;22.11;70.89
64983;DHT22;69426;28.138;-15.436;2023-05-08T15:27:03;22.06;70.76
64983;DHT22;69426;28.138;-15.436;2023-05-08T15:29:29;21.94;71.05
64983;DHT22;69426;28.138;-15.436;2023-05-08T15:31:55;22.14;70.23
64983;DHT22;69426;28.138;-15.436;2023-05-08T15:34:21;22.21;69.11
64983;DHT22;69426;28.138;-15.436;2023-05-08T15:36:47;22.11;69.38
64983;DHT22;69426;28.138;-15.436;2023-05-08T15:39:13;22.26;68.48
64983;DHT22;69426;28.138;-15.436;2023-05-08T15:41:38;22.15;70.09
64983;DHT22;69426;28.138;-15.436;2023-05-08T15:44:06;22.11;71.31
64983;DHT22;69426;28.138;-15.436;2023-05-08T15:46:32;22.19;71.67
64983;DHT22;69426;28.138;-15.436;2023-05-08T15:48:58;21.98;70.68
64983;DHT22;69426;28.138;-15.436;2023-05-08T15:51:24;22.12;70.59
64983;DHT22;69426;28.138;-15.436;2023-05-08T15:53:50;21.98;70.19
64983;DHT22;69426;28.138;-15.436;2023-05-08T15:56:19;22.05;70.28
64983;DHT22;69426;28.138;-15.436;2023-05-08T15:58:54;22.06;71.49
64983;DHT22;69426;28.138;-15.436;2023-05-08T16:01:20;22.06;72.33
64983;DHT22;69426;28.138;-15.436;2023-05-08T16:03:45;22.00;72.79
64983;DHT22;69426;28.138;-15.436;2023-05-08T16:06:11;22.01;72.01